createdAt,value
2019-05-28T00:00:19.990Z,6.87
2019-05-28T00:02:51.973Z,7.17
2019-05-28T00:05:25.003Z,6.87
2019-05-28T00:07:55.509Z,7.10
2019-05-28T00:10:25.965Z,6.50
2019-05-28T00:12:59.008Z,6.90
2019-05-28T00:15:30.638Z,6.93
2019-05-28T00:18:01.262Z,6.73
2019-05-28T00:20:32.065Z,6.73
2019-05-28T00:23:02.461Z,6.70
2019-05-28T00:25:37.359Z,7.20
2019-05-28T00:28:12.302Z,5.90
2019-05-28T00:30:42.818Z,6.67
2019-05-28T00:33:14.624Z,6.70
2019-05-28T00:35:45.252Z,6.23
2019-05-28T00:38:15.668Z,6.20
2019-05-28T00:40:50.449Z,6.83
2019-05-28T00:43:26.650Z,5.80
2019-05-28T00:45:57.491Z,6.57
2019-05-28T00:48:27.944Z,6.03
2019-05-28T00:51:00.672Z,6.20
2019-05-28T00:53:31.099Z,5.90
2019-05-28T00:56:04.055Z,6.30
2019-05-28T00:58:34.486Z,6.23
2019-05-28T01:01:07.700Z,6.57
2019-05-28T01:03:38.114Z,7.00
2019-05-28T01:06:11.987Z,6.40
2019-05-28T01:08:42.405Z,6.63
2019-05-28T01:11:13.247Z,6.20
2019-05-28T01:13:50.861Z,6.27
2019-05-28T01:16:22.590Z,6.57
2019-05-28T01:18:53.011Z,7.30
2019-05-28T01:21:25.401Z,6.50
2019-05-28T01:24:12.626Z,6.50
2019-05-28T01:26:45.253Z,6.37
2019-05-28T01:29:16.087Z,6.07
2019-05-28T01:31:46.927Z,5.77
2019-05-28T01:34:17.374Z,5.40
2019-05-28T01:36:47.870Z,5.57
2019-05-28T01:39:18.325Z,5.60
2019-05-28T01:41:49.141Z,6.10
2019-05-28T01:44:23.897Z,6.37
2019-05-28T01:46:54.346Z,6.50
2019-05-28T01:49:27.917Z,6.07
2019-05-28T01:51:58.343Z,6.53
2019-05-28T01:54:29.156Z,6.60
2019-05-28T01:56:59.623Z,6.90
2019-05-28T01:59:30.095Z,6.80
2019-05-28T02:02:00.889Z,7.53
2019-05-28T02:04:31.296Z,7.60
2019-05-28T02:07:02.211Z,7.23
2019-05-28T02:09:32.643Z,7.80
2019-05-28T02:12:03.095Z,8.70
2019-05-28T02:14:33.542Z,8.43
2019-05-28T02:17:04.077Z,8.73
2019-05-28T02:19:34.899Z,8.47
2019-05-28T02:22:14.145Z,9.07
2019-05-28T02:24:44.898Z,8.60
2019-05-28T02:27:15.636Z,8.57
2019-05-28T02:29:46.062Z,8.80
2019-05-28T02:32:16.780Z,9.20
2019-05-28T02:34:47.175Z,8.23
2019-05-28T02:37:25.005Z,7.63
2019-05-28T02:39:55.418Z,8.40
2019-05-28T02:42:25.837Z,8.77
2019-05-28T02:44:56.209Z,7.53
2019-05-28T02:47:26.656Z,7.80
2019-05-28T02:49:57.039Z,8.17
2019-05-28T02:52:27.919Z,7.83
2019-05-28T02:54:58.318Z,8.33
2019-05-28T02:57:28.743Z,8.07
2019-05-28T03:00:00.734Z,8.40
2019-05-28T03:02:32.190Z,8.40
2019-05-28T03:05:07.382Z,7.93
2019-05-28T03:07:37.857Z,8.10
2019-05-28T03:10:08.262Z,8.10
2019-05-28T03:12:38.677Z,8.40
2019-05-28T03:15:09.379Z,8.77
2019-05-28T03:17:40.091Z,7.60
2019-05-28T03:20:10.526Z,6.50
2019-05-28T03:22:43.783Z,6.90
2019-05-28T03:25:14.224Z,5.97
2019-05-28T03:27:44.612Z,5.00
2019-05-28T03:30:15.057Z,5.10
2019-05-28T03:32:47.068Z,5.30
2019-05-28T03:35:17.513Z,4.50
2019-05-28T03:37:47.920Z,4.80
2019-05-28T03:40:22.108Z,4.77
2019-05-28T03:42:52.583Z,4.40
2019-05-28T03:45:23.374Z,5.33
2019-05-28T03:47:53.837Z,4.37
2019-05-28T03:50:24.552Z,6.27
2019-05-28T03:52:55.014Z,5.23
2019-05-28T03:55:26.838Z,6.17
2019-05-28T03:57:57.251Z,6.00
2019-05-28T04:00:28.024Z,6.27
2019-05-28T04:02:58.852Z,6.30
2019-05-28T04:05:29.608Z,5.73
2019-05-28T04:08:00.086Z,6.27
2019-05-28T04:10:30.491Z,6.67
2019-05-28T04:13:00.928Z,7.03
2019-05-28T04:15:32.900Z,8.00
2019-05-28T04:18:03.397Z,8.20
2019-05-28T04:20:33.834Z,8.50
2019-05-28T04:23:23.344Z,9.97
2019-05-28T04:25:54.010Z,9.97
2019-05-28T04:28:34.730Z,10.63
2019-05-28T04:31:05.242Z,10.57
2019-05-28T04:33:37.953Z,11.50
2019-05-28T04:36:08.435Z,11.33
2019-05-28T04:38:40.280Z,11.27
2019-05-28T04:41:17.277Z,12.27
2019-05-28T04:43:47.700Z,12.20
2019-05-28T04:46:18.174Z,12.67
2019-05-28T04:48:48.636Z,11.97
2019-05-28T04:51:19.086Z,13.33
2019-05-28T04:53:49.791Z,13.97
2019-05-28T04:56:20.491Z,13.20
2019-05-28T04:58:57.017Z,13.67
2019-05-28T05:01:29.783Z,14.33
2019-05-28T05:04:01.683Z,14.57
2019-05-28T05:06:32.182Z,14.37
2019-05-28T05:09:06.532Z,14.50
2019-05-28T05:11:36.967Z,15.07
2019-05-28T05:14:13.095Z,17.10
2019-05-28T05:16:48.637Z,15.50
2019-05-28T05:19:19.072Z,16.23
2019-05-28T05:21:52.115Z,16.40
2019-05-28T05:24:33.522Z,16.57
2019-05-28T05:27:11.696Z,16.87
2019-05-28T05:29:45.677Z,16.07
2019-05-28T05:32:27.657Z,15.73
2019-05-28T05:34:58.481Z,15.37
2019-05-28T05:37:30.273Z,15.57
2019-05-28T05:40:03.873Z,15.60
2019-05-28T05:42:37.808Z,14.83
2019-05-28T05:45:09.272Z,16.07
2019-05-28T05:47:42.333Z,15.50
2019-05-28T05:50:16.497Z,15.70
2019-05-28T05:52:46.944Z,15.60
2019-05-28T05:55:18.938Z,15.53
2019-05-28T05:57:49.454Z,15.80
2019-05-28T06:00:19.876Z,13.17
2019-05-28T06:02:50.298Z,13.27
2019-05-28T06:05:24.859Z,13.53
2019-05-28T06:07:56.951Z,13.60
2019-05-28T06:10:28.252Z,13.10
2019-05-28T06:12:58.682Z,13.03
2019-05-28T06:15:30.182Z,12.10
2019-05-28T06:18:04.317Z,10.77
2019-05-28T06:20:34.987Z,11.37
2019-05-28T06:23:05.865Z,9.40
2019-05-28T06:25:36.609Z,9.57
2019-05-28T06:28:08.228Z,9.33
2019-05-28T06:30:38.719Z,9.17
2019-05-28T06:33:09.499Z,10.33
2019-05-28T06:35:39.958Z,11.20
2019-05-28T06:38:12.304Z,12.00
2019-05-28T06:40:42.912Z,9.90
2019-05-28T06:43:13.444Z,10.40
2019-05-28T06:45:43.927Z,9.80
2019-05-28T06:48:22.166Z,9.90
2019-05-28T06:50:58.927Z,9.10
2019-05-28T06:53:29.355Z,9.87
2019-05-28T06:56:00.163Z,9.93
2019-05-28T06:58:39.595Z,9.83
2019-05-28T07:01:08.271Z,9.70
2019-05-28T07:03:40.710Z,9.73
2019-05-28T07:06:14.275Z,10.30
2019-05-28T07:08:44.791Z,10.93
2019-05-28T07:11:15.803Z,10.93
2019-05-28T07:13:50.642Z,10.70
2019-05-28T07:16:26.742Z,12.90
2019-05-28T07:19:00.788Z,11.73
2019-05-28T07:21:35.472Z,11.00
2019-05-28T07:24:05.951Z,11.03
2019-05-28T07:26:39.309Z,9.13
2019-05-28T07:29:10.194Z,9.63
2019-05-28T07:31:42.705Z,9.87
2019-05-28T07:34:30.154Z,8.97
2019-05-28T07:36:53.434Z,8.33
2019-05-28T07:39:23.961Z,8.40
2019-05-28T07:41:59.820Z,8.70
2019-05-28T07:44:39.542Z,9.30
2019-05-28T07:47:14.619Z,9.43
2019-05-28T07:49:48.308Z,9.73
2019-05-28T07:52:19.303Z,9.60
2019-05-28T07:54:51.181Z,10.13
2019-05-28T07:57:21.722Z,9.57
2019-05-28T07:59:52.171Z,10.60
2019-05-28T08:02:27.946Z,10.30
2019-05-28T08:05:01.905Z,9.57
2019-05-28T08:07:33.964Z,10.33
2019-05-28T08:10:21.451Z,9.77
2019-05-28T08:12:52.339Z,9.13
2019-05-28T08:15:23.093Z,9.40
2019-05-28T08:18:02.542Z,9.07
2019-05-28T08:20:36.783Z,8.80
2019-05-28T08:23:13.191Z,9.00
2019-05-28T08:25:47.427Z,10.60
2019-05-28T08:28:20.324Z,10.37
2019-05-28T08:30:49.851Z,8.57
2019-05-28T08:33:22.810Z,8.07
2019-05-28T08:35:55.029Z,8.40
2019-05-28T08:38:28.823Z,8.33
2019-05-28T08:40:59.250Z,8.13
2019-05-28T08:43:30.286Z,7.53
2019-05-28T08:46:03.507Z,8.73
2019-05-28T08:48:34.192Z,8.17
2019-05-28T08:51:10.095Z,8.20
2019-05-28T08:53:38.561Z,7.87
2019-05-28T08:56:12.767Z,7.70
2019-05-28T08:58:43.203Z,8.13
2019-05-28T09:01:13.917Z,8.37
2019-05-28T09:03:44.317Z,7.70
2019-05-28T09:06:22.422Z,7.00
2019-05-28T09:08:50.103Z,6.30
2019-05-28T09:11:20.757Z,6.40
2019-05-28T09:13:51.197Z,5.90
2019-05-28T09:16:21.791Z,6.17
2019-05-28T09:18:56.014Z,6.10
2019-05-28T09:21:26.637Z,5.60
2019-05-28T09:23:57.078Z,6.03
2019-05-28T09:26:27.660Z,6.33
2019-05-28T09:28:58.233Z,5.87
2019-05-28T09:31:34.434Z,6.30
2019-05-28T09:34:07.648Z,5.93
2019-05-28T09:36:39.093Z,5.97
2019-05-28T09:39:09.819Z,6.10
2019-05-28T09:41:40.216Z,5.97
2019-05-28T09:44:10.696Z,5.97
2019-05-28T09:46:45.246Z,5.73
2019-05-28T09:49:15.788Z,6.00
2019-05-28T09:51:46.244Z,6.80
2019-05-28T09:54:19.228Z,5.73
2019-05-28T09:56:49.801Z,5.50
2019-05-28T09:59:20.883Z,5.60
2019-05-28T10:01:51.456Z,5.20
2019-05-28T10:04:43.723Z,6.27
2019-05-28T10:06:57.231Z,6.10
2019-05-28T10:09:27.686Z,5.13
2019-05-28T10:12:04.458Z,5.70
2019-05-28T10:14:38.106Z,5.33
2019-05-28T10:17:11.196Z,5.13
2019-05-28T10:19:42.381Z,4.93
2019-05-28T10:22:13.132Z,5.93
2019-05-28T10:24:45.639Z,5.60
2019-05-28T10:27:16.833Z,5.60
2019-05-28T10:29:47.279Z,6.00
2019-05-28T10:32:19.403Z,5.07
2019-05-28T10:35:03.287Z,4.77
2019-05-28T10:37:22.126Z,5.07
2019-05-28T10:39:58.225Z,5.20
2019-05-28T10:42:36.170Z,4.70
2019-05-28T10:45:11.914Z,4.70
2019-05-28T10:47:42.655Z,5.17
2019-05-28T10:50:18.571Z,4.73
2019-05-28T10:52:54.103Z,4.57
2019-05-28T10:55:30.317Z,4.67
2019-05-28T10:58:05.361Z,4.30
2019-05-28T11:00:35.750Z,5.10
2019-05-28T11:03:06.323Z,4.80
2019-05-28T11:05:44.086Z,4.90
2019-05-28T11:08:16.385Z,4.40
2019-05-28T11:10:53.223Z,4.60
2019-05-28T11:13:23.640Z,5.13
2019-05-28T11:15:55.136Z,4.80
2019-05-28T11:18:30.238Z,4.60
2019-05-28T11:21:09.142Z,4.53
2019-05-28T11:23:38.675Z,4.50
2019-05-28T11:26:09.125Z,4.73
2019-05-28T11:28:39.664Z,5.33
2019-05-28T11:31:10.250Z,5.10
2019-05-28T11:33:40.685Z,4.80
2019-05-28T11:36:16.145Z,5.23
2019-05-28T11:38:49.896Z,5.00
2019-05-28T11:41:20.765Z,4.50
2019-05-28T11:43:51.262Z,4.80
2019-05-28T11:46:22.148Z,5.00
2019-05-28T11:49:12.605Z,4.80
2019-05-28T11:51:43.134Z,4.77
2019-05-28T11:54:13.813Z,4.70
2019-05-28T11:56:45.378Z,4.77
2019-05-28T11:59:15.817Z,5.03
2019-05-28T12:01:49.905Z,4.80
2019-05-28T12:04:21.659Z,4.90
2019-05-28T12:06:54.104Z,4.40
2019-05-28T12:09:25.112Z,4.90
2019-05-28T12:11:59.078Z,5.57
2019-05-28T12:14:29.506Z,4.40
2019-05-28T12:17:00.273Z,4.87
2019-05-28T12:19:38.651Z,4.73
2019-05-28T12:22:12.059Z,4.47
2019-05-28T12:24:43.984Z,4.90
2019-05-28T12:27:16.662Z,4.57
2019-05-28T12:30:03.220Z,4.50
2019-05-28T12:32:35.210Z,4.37
2019-05-28T12:35:23.850Z,4.50
2019-05-28T12:37:49.017Z,4.40
2019-05-28T12:40:19.635Z,5.00
2019-05-28T12:42:53.202Z,4.50
2019-05-28T12:45:36.521Z,4.83
2019-05-28T12:48:12.972Z,5.27
2019-05-28T12:50:42.804Z,5.63
2019-05-28T12:53:13.209Z,5.57
2019-05-28T12:55:43.635Z,5.97
2019-05-28T12:58:20.416Z,4.90
2019-05-28T13:00:52.020Z,4.60
2019-05-28T13:03:25.309Z,5.23
2019-05-28T13:05:56.191Z,5.07
2019-05-28T13:08:26.607Z,6.57
2019-05-28T13:11:05.331Z,6.70
2019-05-28T13:13:37.226Z,5.47
2019-05-28T13:16:10.634Z,5.40
2019-05-28T13:18:41.152Z,5.17
2019-05-28T13:21:14.103Z,5.27
2019-05-28T13:23:45.988Z,5.70
2019-05-28T13:26:19.750Z,4.70
2019-05-28T13:28:52.405Z,4.60
2019-05-28T13:31:24.373Z,4.70
2019-05-28T13:33:54.954Z,5.93
2019-05-28T13:36:25.444Z,6.77
2019-05-28T13:38:58.899Z,6.40
2019-05-28T13:41:40.318Z,6.77
2019-05-28T13:44:10.802Z,7.53
2019-05-28T13:46:41.250Z,7.27
2019-05-28T13:49:40.068Z,7.83
2019-05-28T13:52:51.444Z,6.90
2019-05-28T13:55:22.114Z,7.50
2019-05-28T13:57:52.831Z,8.03
2019-05-28T14:00:23.225Z,8.17
2019-05-28T14:03:01.041Z,7.80
2019-05-28T14:05:32.379Z,8.33
2019-05-28T14:08:02.777Z,8.03
2019-05-28T14:10:33.246Z,8.73
2019-05-28T14:13:06.026Z,8.20
2019-05-28T14:15:36.463Z,8.27
2019-05-28T14:18:11.704Z,8.20
2019-05-28T14:20:42.192Z,8.47
2019-05-28T14:23:13.268Z,8.60
2019-05-28T14:25:44.729Z,7.60
2019-05-28T14:28:26.175Z,7.73
2019-05-28T14:31:01.752Z,8.33
2019-05-28T14:33:32.404Z,7.97
2019-05-28T14:36:06.283Z,10.40
2019-05-28T14:38:37.119Z,17.83
2019-05-28T14:41:22.645Z,38.97
2019-05-28T14:43:54.530Z,46.37
2019-05-28T14:46:31.100Z,19.83
2019-05-28T14:49:07.931Z,15.27
2019-05-28T14:51:38.612Z,11.77
2019-05-28T14:54:11.730Z,10.77
2019-05-28T14:56:42.210Z,11.33
2019-05-28T14:59:15.226Z,10.67
2019-05-28T15:01:45.819Z,11.60
2019-05-28T15:04:17.575Z,12.17
2019-05-28T15:06:57.074Z,11.30
2019-05-28T15:09:24.212Z,10.77
2019-05-28T15:11:56.997Z,10.97
2019-05-28T15:14:27.758Z,11.13
2019-05-28T15:16:58.392Z,10.43
2019-05-28T15:19:31.650Z,9.70
2019-05-28T15:22:08.118Z,8.77
2019-05-28T15:24:42.809Z,9.20
2019-05-28T15:27:13.638Z,8.90
2019-05-28T15:29:47.388Z,8.10
2019-05-28T15:32:19.388Z,8.30
2019-05-28T15:34:55.097Z,8.10
2019-05-28T15:37:25.445Z,7.53
2019-05-28T15:39:56.196Z,8.17
2019-05-28T15:42:36.759Z,7.27
2019-05-28T15:45:07.587Z,7.57
2019-05-28T15:47:37.996Z,7.77
2019-05-28T15:50:09.591Z,8.53
2019-05-28T15:52:46.262Z,7.37
2019-05-28T15:55:18.350Z,7.03
2019-05-28T15:58:12.742Z,7.57
2019-05-28T16:00:45.319Z,7.27
2019-05-28T16:03:19.020Z,7.40
2019-05-28T16:05:51.098Z,7.23
2019-05-28T16:08:30.217Z,6.50
2019-05-28T16:11:02.192Z,6.70
2019-05-28T16:13:48.781Z,6.63
2019-05-28T16:16:24.438Z,6.13
2019-05-28T16:18:58.788Z,6.57
2019-05-28T16:21:29.215Z,7.00
2019-05-28T16:23:59.816Z,6.30
2019-05-28T16:26:54.661Z,6.63
2019-05-28T16:29:25.129Z,6.43
2019-05-28T16:31:59.579Z,6.77
2019-05-28T16:34:32.784Z,6.30
2019-05-28T16:37:03.346Z,7.27
2019-05-28T16:39:33.785Z,6.60
2019-05-28T16:42:04.266Z,6.03
2019-05-28T16:44:39.894Z,7.07
2019-05-28T16:47:16.566Z,6.60
2019-05-28T16:49:45.655Z,6.70
2019-05-28T16:52:16.134Z,7.13
2019-05-28T16:54:51.233Z,6.00
2019-05-28T16:57:22.079Z,6.57
2019-05-28T17:00:01.536Z,5.27
2019-05-28T17:02:38.149Z,5.10
2019-05-28T17:05:16.792Z,4.23
2019-05-28T17:07:49.294Z,5.97
2019-05-28T17:10:32.531Z,5.40
2019-05-28T17:12:54.780Z,5.60
2019-05-28T17:15:26.109Z,5.83
2019-05-28T17:17:58.431Z,5.53
2019-05-28T17:20:28.897Z,5.63
2019-05-28T17:23:03.939Z,6.23
2019-05-28T17:25:34.320Z,5.70
2019-05-28T17:28:12.221Z,4.80
2019-05-28T17:30:48.092Z,5.23
2019-05-28T17:33:21.151Z,5.70
2019-05-28T17:35:51.708Z,6.20
2019-05-28T17:38:28.189Z,6.83
2019-05-28T17:41:01.846Z,9.43
2019-05-28T17:43:47.000Z,4.97
2019-05-28T17:46:19.673Z,4.30
2019-05-28T17:48:53.525Z,3.50
2019-05-28T17:51:24.639Z,4.03
2019-05-28T17:53:55.663Z,3.33
2019-05-28T17:56:26.829Z,6.43
2019-05-28T17:58:57.654Z,4.47
2019-05-28T18:01:28.344Z,3.87
2019-05-28T18:04:10.122Z,6.13
2019-05-28T18:06:41.069Z,7.30
2019-05-28T18:09:15.608Z,6.83
2019-05-28T18:11:49.139Z,5.27
2019-05-28T18:14:23.735Z,6.10
2019-05-28T18:16:54.725Z,6.47
2019-05-28T18:19:25.230Z,6.90
2019-05-28T18:21:59.364Z,6.73
2019-05-28T18:24:34.398Z,6.20
2019-05-28T18:27:05.166Z,7.80
2019-05-28T18:29:49.804Z,7.13
2019-05-28T18:32:20.363Z,7.33
2019-05-28T18:34:51.265Z,11.23
2019-05-28T18:37:21.710Z,6.93
2019-05-28T18:39:59.329Z,7.87
2019-05-28T18:42:31.873Z,7.50
2019-05-28T18:45:06.088Z,7.97
2019-05-28T18:47:46.578Z,7.90
2019-05-28T18:50:22.965Z,6.77
2019-05-28T18:52:55.762Z,7.60
2019-05-28T18:55:26.358Z,6.77
2019-05-28T18:57:56.879Z,6.80
2019-05-28T19:00:29.685Z,7.10
2019-05-28T19:03:05.975Z,7.00
2019-05-28T19:05:36.561Z,7.10
2019-05-28T19:08:21.766Z,7.23
2019-05-28T19:10:52.392Z,7.27
2019-05-28T19:13:23.202Z,7.60
2019-05-28T19:15:54.189Z,7.37
2019-05-28T19:18:27.095Z,8.57
2019-05-28T19:21:01.277Z,7.97
2019-05-28T19:23:36.088Z,8.03
2019-05-28T19:26:11.563Z,7.83
2019-05-28T19:28:45.633Z,7.93
2019-05-28T19:31:36.423Z,8.37
2019-05-28T19:34:07.182Z,8.27
2019-05-28T19:36:49.348Z,8.23
2019-05-28T19:39:19.830Z,8.17
2019-05-28T19:41:54.688Z,8.17
2019-05-28T19:44:25.569Z,9.10
2019-05-28T19:46:56.965Z,7.97
2019-05-28T19:49:27.599Z,8.57
2019-05-28T19:51:58.128Z,8.33
2019-05-28T19:54:28.750Z,8.90
2019-05-28T19:57:00.335Z,7.90
2019-05-28T19:59:33.903Z,8.57
2019-05-28T20:02:05.808Z,8.03
2019-05-28T20:04:37.835Z,8.37
2019-05-28T20:07:08.615Z,7.13
2019-05-28T20:09:39.238Z,7.97
2019-05-28T20:12:12.890Z,7.97
2019-05-28T20:14:43.654Z,8.63
2019-05-28T20:17:14.079Z,7.90
2019-05-28T20:19:45.301Z,8.53
2019-05-28T20:22:15.902Z,8.07
2019-05-28T20:24:47.869Z,8.53
2019-05-28T20:27:54.444Z,8.13
2019-05-28T20:30:27.964Z,8.87
2019-05-28T20:33:01.179Z,8.00
2019-05-28T20:35:34.913Z,8.30
2019-05-28T20:38:08.837Z,7.83
2019-05-28T20:40:39.175Z,8.37
2019-05-28T20:43:11.170Z,8.50
2019-05-28T20:45:43.985Z,7.40
2019-05-28T20:48:14.844Z,8.03
2019-05-28T20:50:48.268Z,8.67
2019-05-28T20:53:18.837Z,7.93
2019-05-28T20:55:52.123Z,7.83
2019-05-28T20:58:39.017Z,7.70
2019-05-28T21:00:55.638Z,7.83
2019-05-28T21:03:35.107Z,7.83
2019-05-28T21:06:05.855Z,8.67
2019-05-28T21:08:36.324Z,8.23
2019-05-28T21:11:08.344Z,7.90
2019-05-28T21:13:41.759Z,8.43
2019-05-28T21:16:12.533Z,8.23
2019-05-28T21:18:53.127Z,8.03
2019-05-28T21:21:24.119Z,8.43
2019-05-28T21:23:58.104Z,7.83
2019-05-28T21:26:28.147Z,8.10
2019-05-28T21:29:02.807Z,8.57
2019-05-28T21:31:33.233Z,8.47
2019-05-28T21:34:05.354Z,9.03
2019-05-28T21:36:36.019Z,8.30
2019-05-28T21:39:07.586Z,8.50
2019-05-28T21:41:38.080Z,8.70
2019-05-28T21:44:10.305Z,9.53
2019-05-28T21:46:40.858Z,9.00
2019-05-28T21:49:11.275Z,9.70
2019-05-28T21:51:41.717Z,9.53
2019-05-28T21:54:15.297Z,9.47
2019-05-28T21:57:05.481Z,9.37
2019-05-28T21:59:35.902Z,9.40
2019-05-28T22:02:08.218Z,8.80
2019-05-28T22:04:41.559Z,10.53
2019-05-28T22:07:12.091Z,9.97
2019-05-28T22:09:46.576Z,9.73
2019-05-28T22:12:17.852Z,10.13
2019-05-28T22:14:48.291Z,9.50
2019-05-28T22:17:18.685Z,9.40
2019-05-28T22:19:49.092Z,9.70
2019-05-28T22:22:19.540Z,9.73
2019-05-28T22:25:09.133Z,10.10
2019-05-28T22:27:39.610Z,10.40
2019-05-28T22:30:11.266Z,10.27
2019-05-28T22:32:44.394Z,9.93
2019-05-28T22:35:15.125Z,10.10
2019-05-28T22:37:45.694Z,9.97
2019-05-28T22:40:16.647Z,10.47
2019-05-28T22:42:47.119Z,10.60
2019-05-28T22:45:17.791Z,10.20
2019-05-28T22:47:48.260Z,10.43
2019-05-28T22:50:22.969Z,10.77
2019-05-28T22:52:51.091Z,10.50
2019-05-28T22:55:22.102Z,9.73
2019-05-28T22:57:52.666Z,10.60
2019-05-28T23:00:25.076Z,9.50
2019-05-28T23:02:55.914Z,10.30
2019-05-28T23:05:26.361Z,10.57
2019-05-28T23:07:56.768Z,9.53
2019-05-28T23:10:27.214Z,9.17
2019-05-28T23:13:02.960Z,8.37
2019-05-28T23:15:34.115Z,7.47
2019-05-28T23:18:07.115Z,8.07
2019-05-28T23:20:37.507Z,7.77
2019-05-28T23:23:07.890Z,8.47
2019-05-28T23:25:42.116Z,8.17
2019-05-28T23:28:13.085Z,7.90
2019-05-28T23:30:43.862Z,8.13
2019-05-28T23:33:14.405Z,8.73
2019-05-28T23:35:50.462Z,8.57
2019-05-28T23:38:31.704Z,8.67
2019-05-28T23:41:03.078Z,8.33
2019-05-28T23:43:37.439Z,8.17
2019-05-28T23:46:30.928Z,8.87
2019-05-28T23:49:01.394Z,8.70
2019-05-28T23:51:34.784Z,9.53
2019-05-28T23:54:07.584Z,8.97
2019-05-28T23:56:38.318Z,8.67
2019-05-28T23:59:09.769Z,9.20
